sensor_id;sensor_type;location;lat;lon;timestamp;temperature;humidity
7784;DHT22;19359;51.402;6.778;2023-02-15T00:00:09;1.10;1.00
7784;DHT22;19359;51.402;6.778;2023-02-15T00:02:36;1.00;99.90
7784;DHT22;19359;51.402;6.778;2023-02-15T00:05:04;1.10;99.90
7784;DHT22;19359;51.402;6.778;2023-02-15T00:07:32;0.90;99.90
7784;DHT22;19359;51.402;6.778;2023-02-15T00:12:26;0.90;99.90
7784;DHT22;19359;51.402;6.778;2023-02-15T00:14:52;0.70;99.90
7784;DHT22;19359;51.402;6.778;2023-02-15T00:17:20;1.00;99.90
7784;DHT22;19359;51.402;6.778;2023-02-15T00:19:47;0.70;99.90
7784;DHT22;19359;51.402;6.778;2023-02-15T00:22:14;0.80;99.90
7784;DHT22;19359;51.402;6.778;2023-02-15T00:24:42;0.70;1.00
7784;DHT22;19359;51.402;6.778;2023-02-15T00:29:36;1.10;99.90
7784;DHT22;19359;51.402;6.778;2023-02-15T00:32:03;0.70;99.90
7784;DHT22;19359;51.402;6.778;2023-02-15T00:34:29;0.90;99.90
7784;DHT22;19359;51.402;6.778;2023-02-15T00:36:56;0.90;99.90
7784;DHT22;19359;51.402;6.778;2023-02-15T00:39:23;0.70;99.90
7784;DHT22;19359;51.402;6.778;2023-02-15T00:46:58;0.80;1.00
7784;DHT22;19359;51.402;6.778;2023-02-15T00:49:25;0.80;99.90
7784;DHT22;19359;51.402;6.778;2023-02-15T00:54:19;0.60;99.90
7784;DHT22;19359;51.402;6.778;2023-02-15T00:56:46;0.70;99.90
7784;DHT22;19359;51.402;6.778;2023-02-15T00:59:13;0.70;1.00
7784;DHT22;19359;51.402;6.778;2023-02-15T01:01:39;0.80;99.90
7784;DHT22;19359;51.402;6.778;2023-02-15T01:04:07;0.80;1.00
7784;DHT22;19359;51.402;6.778;2023-02-15T01:06:34;1.00;99.90
7784;DHT22;19359;51.402;6.778;2023-02-15T01:09:01;0.80;99.90
7784;DHT22;19359;51.402;6.778;2023-02-15T01:11:28;0.70;99.90
7784;DHT22;19359;51.402;6.778;2023-02-15T01:13:56;0.70;99.90
7784;DHT22;19359;51.402;6.778;2023-02-15T01:16:25;0.60;1.00
7784;DHT22;19359;51.402;6.778;2023-02-15T01:18:52;0.60;99.90
7784;DHT22;19359;51.402;6.778;2023-02-15T01:21:23;0.50;1.00
7784;DHT22;19359;51.402;6.778;2023-02-15T01:23:51;0.60;99.90
7784;DHT22;19359;51.402;6.778;2023-02-15T01:26:18;0.40;99.90
7784;DHT22;19359;51.402;6.778;2023-02-15T01:31:14;0.40;1.00
7784;DHT22;19359;51.402;6.778;2023-02-15T01:33:41;0.30;99.90
7784;DHT22;19359;51.402;6.778;2023-02-15T01:36:08;0.50;99.90
7784;DHT22;19359;51.402;6.778;2023-02-15T01:38:36;0.50;1.00
7784;DHT22;19359;51.402;6.778;2023-02-15T01:41:03;0.50;1.00
7784;DHT22;19359;51.402;6.778;2023-02-15T01:43:51;0.60;1.00
7784;DHT22;19359;51.402;6.778;2023-02-15T01:46:22;0.50;1.00
7784;DHT22;19359;51.402;6.778;2023-02-15T01:48:54;0.60;99.90
7784;DHT22;19359;51.402;6.778;2023-02-15T01:51:24;0.30;1.00
7784;DHT22;19359;51.402;6.778;2023-02-15T01:53:59;0.40;99.90
7784;DHT22;19359;51.402;6.778;2023-02-15T01:56:29;0.30;1.00
7784;DHT22;19359;51.402;6.778;2023-02-15T01:59:06;0.40;99.90
7784;DHT22;19359;51.402;6.778;2023-02-15T02:04:05;0.30;1.00
7784;DHT22;19359;51.402;6.778;2023-02-15T02:06:33;0.90;99.90
7784;DHT22;19359;51.402;6.778;2023-02-15T02:09:04;0.40;99.90
7784;DHT22;19359;51.402;6.778;2023-02-15T02:11:32;0.30;1.00
7784;DHT22;19359;51.402;6.778;2023-02-15T02:16:30;0.20;99.90
7784;DHT22;19359;51.402;6.778;2023-02-15T02:19:27;0.50;99.90
7784;DHT22;19359;51.402;6.778;2023-02-15T02:22:28;0.30;1.00
7784;DHT22;19359;51.402;6.778;2023-02-15T02:28:19;0.20;99.90
7784;DHT22;19359;51.402;6.778;2023-02-15T02:33:49;0.20;1.00
7784;DHT22;19359;51.402;6.778;2023-02-15T02:36:25;0.90;1.00
7784;DHT22;19359;51.402;6.778;2023-02-15T02:39:07;0.10;1.00
7784;DHT22;19359;51.402;6.778;2023-02-15T02:41:41;-0.10;99.90
7784;DHT22;19359;51.402;6.778;2023-02-15T02:44:13;0.00;99.90
7784;DHT22;19359;51.402;6.778;2023-02-15T02:46:50;0.10;99.90
7784;DHT22;19359;51.402;6.778;2023-02-15T02:49:31;0.10;99.90
7784;DHT22;19359;51.402;6.778;2023-02-15T02:52:00;0.20;99.90
7784;DHT22;19359;51.402;6.778;2023-02-15T02:54:27;0.00;1.00
7784;DHT22;19359;51.402;6.778;2023-02-15T02:56:56;0.10;99.90
7784;DHT22;19359;51.402;6.778;2023-02-15T02:59:26;0.10;99.90
7784;DHT22;19359;51.402;6.778;2023-02-15T03:01:57;0.10;99.90
7784;DHT22;19359;51.402;6.778;2023-02-15T03:04:32;0.10;99.90
7784;DHT22;19359;51.402;6.778;2023-02-15T03:07:01;0.10;1.00
7784;DHT22;19359;51.402;6.778;2023-02-15T03:09:30;0.20;99.90
7784;DHT22;19359;51.402;6.778;2023-02-15T03:12:08;0.10;99.90
7784;DHT22;19359;51.402;6.778;2023-02-15T03:14:35;0.00;99.90
7784;DHT22;19359;51.402;6.778;2023-02-15T03:17:04;0.00;99.90
7784;DHT22;19359;51.402;6.778;2023-02-15T03:19:36;0.00;99.90
7784;DHT22;19359;51.402;6.778;2023-02-15T03:24:38;0.00;24.30
7784;DHT22;19359;51.402;6.778;2023-02-15T03:27:09;0.10;48.20
7784;DHT22;19359;51.402;6.778;2023-02-15T03:29:37;0.10;69.60
7784;DHT22;19359;51.402;6.778;2023-02-15T03:32:07;0.30;1.00
7784;DHT22;19359;51.402;6.778;2023-02-15T03:34:36;0.30;1.00
7784;DHT22;19359;51.402;6.778;2023-02-15T03:37:08;0.20;1.00
7784;DHT22;19359;51.402;6.778;2023-02-15T03:39:42;0.20;99.90
7784;DHT22;19359;51.402;6.778;2023-02-15T03:42:13;0.10;1.00
7784;DHT22;19359;51.402;6.778;2023-02-15T03:44:48;0.30;1.00
7784;DHT22;19359;51.402;6.778;2023-02-15T03:47:18;0.20;1.00
7784;DHT22;19359;51.402;6.778;2023-02-15T03:49:51;0.20;1.00
7784;DHT22;19359;51.402;6.778;2023-02-15T03:52:21;0.30;1.00
7784;DHT22;19359;51.402;6.778;2023-02-15T03:54:47;0.40;99.90
7784;DHT22;19359;51.402;6.778;2023-02-15T03:57:18;0.40;81.90
7784;DHT22;19359;51.402;6.778;2023-02-15T04:00:05;0.10;88.80
7784;DHT22;19359;51.402;6.778;2023-02-15T04:03:04;0.50;25.90
7784;DHT22;19359;51.402;6.778;2023-02-15T04:05:34;0.20;1.00
7784;DHT22;19359;51.402;6.778;2023-02-15T04:08:02;0.10;1.00
7784;DHT22;19359;51.402;6.778;2023-02-15T04:10:28;0.10;1.00
7784;DHT22;19359;51.402;6.778;2023-02-15T04:15:39;0.00;1.00
7784;DHT22;19359;51.402;6.778;2023-02-15T04:18:24;0.00;1.00
7784;DHT22;19359;51.402;6.778;2023-02-15T04:21:09;0.20;1.00
7784;DHT22;19359;51.402;6.778;2023-02-15T04:29:05;0.00;1.00
7784;DHT22;19359;51.402;6.778;2023-02-15T04:33:59;-0.10;1.00
7784;DHT22;19359;51.402;6.778;2023-02-15T04:36:27;-0.10;1.00
7784;DHT22;19359;51.402;6.778;2023-02-15T04:38:53;0.00;1.00
7784;DHT22;19359;51.402;6.778;2023-02-15T04:41:20;-0.10;1.00
7784;DHT22;19359;51.402;6.778;2023-02-15T04:43:47;-0.10;1.00
7784;DHT22;19359;51.402;6.778;2023-02-15T04:46:14;-0.20;1.00
7784;DHT22;19359;51.402;6.778;2023-02-15T04:48:40;-0.30;1.00
7784;DHT22;19359;51.402;6.778;2023-02-15T04:51:07;-0.20;1.00
7784;DHT22;19359;51.402;6.778;2023-02-15T04:53:36;-0.30;1.00
7784;DHT22;19359;51.402;6.778;2023-02-15T04:56:03;-0.20;1.00
7784;DHT22;19359;51.402;6.778;2023-02-15T04:58:29;-0.20;1.00
7784;DHT22;19359;51.402;6.778;2023-02-15T05:03:24;-0.40;1.00
7784;DHT22;19359;51.402;6.778;2023-02-15T05:05:51;-0.20;1.00
7784;DHT22;19359;51.402;6.778;2023-02-15T05:08:17;-0.50;1.00
7784;DHT22;19359;51.402;6.778;2023-02-15T05:10:47;-0.30;1.00
7784;DHT22;19359;51.402;6.778;2023-02-15T05:13:14;-0.30;1.00
7784;DHT22;19359;51.402;6.778;2023-02-15T05:15:41;-0.50;1.00
7784;DHT22;19359;51.402;6.778;2023-02-15T05:18:07;-0.30;1.00
7784;DHT22;19359;51.402;6.778;2023-02-15T05:20:34;-0.30;1.00
7784;DHT22;19359;51.402;6.778;2023-02-15T05:23:01;-0.30;1.00
7784;DHT22;19359;51.402;6.778;2023-02-15T05:25:27;-0.20;1.00
7784;DHT22;19359;51.402;6.778;2023-02-15T05:28:13;-0.40;1.00
7784;DHT22;19359;51.402;6.778;2023-02-15T05:30:46;-0.40;1.00
7784;DHT22;19359;51.402;6.778;2023-02-15T05:33:12;-0.40;1.00
7784;DHT22;19359;51.402;6.778;2023-02-15T05:35:39;-0.40;1.00
7784;DHT22;19359;51.402;6.778;2023-02-15T05:38:06;-0.40;1.00
7784;DHT22;19359;51.402;6.778;2023-02-15T05:40:33;-0.70;1.00
7784;DHT22;19359;51.402;6.778;2023-02-15T05:43:00;-0.40;1.00
7784;DHT22;19359;51.402;6.778;2023-02-15T05:45:28;-0.50;1.00
7784;DHT22;19359;51.402;6.778;2023-02-15T05:47:55;-0.60;1.00
7784;DHT22;19359;51.402;6.778;2023-02-15T05:52:50;-0.40;85.70
7784;DHT22;19359;51.402;6.778;2023-02-15T05:55:17;-0.30;99.90
7784;DHT22;19359;51.402;6.778;2023-02-15T05:57:44;-0.70;99.90
7784;DHT22;19359;51.402;6.778;2023-02-15T06:00:12;-0.40;99.90
7784;DHT22;19359;51.402;6.778;2023-02-15T06:02:40;-0.30;99.90
7784;DHT22;19359;51.402;6.778;2023-02-15T06:05:07;-0.50;99.90
7784;DHT22;19359;51.402;6.778;2023-02-15T06:07:34;-0.40;1.00
7784;DHT22;19359;51.402;6.778;2023-02-15T06:10:01;-0.30;1.00
7784;DHT22;19359;51.402;6.778;2023-02-15T06:12:28;-0.10;1.00
7784;DHT22;19359;51.402;6.778;2023-02-15T06:14:54;-0.30;1.00
7784;DHT22;19359;51.402;6.778;2023-02-15T06:17:21;-0.20;1.00
7784;DHT22;19359;51.402;6.778;2023-02-15T06:19:49;-0.30;1.00
7784;DHT22;19359;51.402;6.778;2023-02-15T06:22:16;0.10;99.90
7784;DHT22;19359;51.402;6.778;2023-02-15T06:27:10;0.10;1.00
7784;DHT22;19359;51.402;6.778;2023-02-15T06:29:37;0.20;1.00
7784;DHT22;19359;51.402;6.778;2023-02-15T06:32:04;0.00;1.00
7784;DHT22;19359;51.402;6.778;2023-02-15T06:34:31;0.20;1.00
7784;DHT22;19359;51.402;6.778;2023-02-15T06:36:59;0.20;1.00
7784;DHT22;19359;51.402;6.778;2023-02-15T06:39:26;0.30;1.00
7784;DHT22;19359;51.402;6.778;2023-02-15T06:41:52;0.30;1.00
7784;DHT22;19359;51.402;6.778;2023-02-15T06:44:19;0.50;99.90
7784;DHT22;19359;51.402;6.778;2023-02-15T06:46:46;0.60;1.00
7784;DHT22;19359;51.402;6.778;2023-02-15T06:49:12;0.50;1.00
7784;DHT22;19359;51.402;6.778;2023-02-15T06:51:39;0.50;1.00
7784;DHT22;19359;51.402;6.778;2023-02-15T06:54:07;0.60;1.00
7784;DHT22;19359;51.402;6.778;2023-02-15T06:56:34;0.60;1.00
7784;DHT22;19359;51.402;6.778;2023-02-15T06:59:01;0.70;99.90
7784;DHT22;19359;51.402;6.778;2023-02-15T07:03:55;0.60;1.00
7784;DHT22;19359;51.402;6.778;2023-02-15T07:06:21;0.50;1.00
7784;DHT22;19359;51.402;6.778;2023-02-15T07:08:48;0.50;1.00
7784;DHT22;19359;51.402;6.778;2023-02-15T07:11:16;0.40;99.90
7784;DHT22;19359;51.402;6.778;2023-02-15T07:14:11;0.20;99.90
7784;DHT22;19359;51.402;6.778;2023-02-15T07:16:38;0.10;99.90
7784;DHT22;19359;51.402;6.778;2023-02-15T07:19:05;0.30;99.90
7784;DHT22;19359;51.402;6.778;2023-02-15T07:21:34;0.40;1.00
7784;DHT22;19359;51.402;6.778;2023-02-15T07:24:04;0.30;1.00
7784;DHT22;19359;51.402;6.778;2023-02-15T07:26:32;0.60;1.00
7784;DHT22;19359;51.402;6.778;2023-02-15T07:28:59;0.60;99.90
7784;DHT22;19359;51.402;6.778;2023-02-15T07:36:20;1.00;1.00
7784;DHT22;19359;51.402;6.778;2023-02-15T07:38:47;1.00;1.00
7784;DHT22;19359;51.402;6.778;2023-02-15T07:41:14;1.00;1.00
7784;DHT22;19359;51.402;6.778;2023-02-15T07:43:44;1.00;99.90
7784;DHT22;19359;51.402;6.778;2023-02-15T07:46:13;1.10;1.00
7784;DHT22;19359;51.402;6.778;2023-02-15T07:48:40;1.20;1.00
7784;DHT22;19359;51.402;6.778;2023-02-15T07:51:08;1.40;99.90
7784;DHT22;19359;51.402;6.778;2023-02-15T07:53:36;1.40;1.00
7784;DHT22;19359;51.402;6.778;2023-02-15T07:56:05;3.90;99.90
7784;DHT22;19359;51.402;6.778;2023-02-15T07:58:32;1.70;99.90
7784;DHT22;19359;51.402;6.778;2023-02-15T08:01:21;1.70;1.00
7784;DHT22;19359;51.402;6.778;2023-02-15T08:03:49;1.80;1.00
7784;DHT22;19359;51.402;6.778;2023-02-15T08:06:16;1.90;1.00
7784;DHT22;19359;51.402;6.778;2023-02-15T08:08:42;1.90;1.00
7784;DHT22;19359;51.402;6.778;2023-02-15T08:11:16;2.10;99.90
7784;DHT22;19359;51.402;6.778;2023-02-15T08:13:55;2.10;1.00
7784;DHT22;19359;51.402;6.778;2023-02-15T08:16:28;2.20;61.30
7784;DHT22;19359;51.402;6.778;2023-02-15T08:18:55;2.30;99.90
7784;DHT22;19359;51.402;6.778;2023-02-15T08:21:24;2.40;99.90
7784;DHT22;19359;51.402;6.778;2023-02-15T08:23:51;2.50;99.90
7784;DHT22;19359;51.402;6.778;2023-02-15T08:26:18;2.70;99.90
7784;DHT22;19359;51.402;6.778;2023-02-15T08:28:45;2.70;99.90
7784;DHT22;19359;51.402;6.778;2023-02-15T08:31:13;2.70;99.90
7784;DHT22;19359;51.402;6.778;2023-02-15T08:33:42;2.90;99.90
7784;DHT22;19359;51.402;6.778;2023-02-15T08:36:11;2.90;99.90
7784;DHT22;19359;51.402;6.778;2023-02-15T08:38:39;3.10;99.90
7784;DHT22;19359;51.402;6.778;2023-02-15T08:41:10;3.40;99.90
7784;DHT22;19359;51.402;6.778;2023-02-15T08:43:37;3.40;99.90
7784;DHT22;19359;51.402;6.778;2023-02-15T08:48:32;3.20;99.90
7784;DHT22;19359;51.402;6.778;2023-02-15T08:51:04;3.60;1.00
7784;DHT22;19359;51.402;6.778;2023-02-15T08:53:31;3.70;99.90
7784;DHT22;19359;51.402;6.778;2023-02-15T08:55:59;4.00;99.90
7784;DHT22;19359;51.402;6.778;2023-02-15T09:00:52;4.20;93.10
7784;DHT22;19359;51.402;6.778;2023-02-15T09:03:19;4.50;81.80
7784;DHT22;19359;51.402;6.778;2023-02-15T09:05:46;4.50;63.50
7784;DHT22;19359;51.402;6.778;2023-02-15T09:08:14;4.60;1.00
7784;DHT22;19359;51.402;6.778;2023-02-15T09:10:42;4.70;64.30
7784;DHT22;19359;51.402;6.778;2023-02-15T09:13:09;4.80;75.30
7784;DHT22;19359;51.402;6.778;2023-02-15T09:15:36;4.80;56.00
7784;DHT22;19359;51.402;6.778;2023-02-15T09:18:03;4.90;1.00
7784;DHT22;19359;51.402;6.778;2023-02-15T09:20:32;4.90;1.00
7784;DHT22;19359;51.402;6.778;2023-02-15T09:23:01;5.30;48.60
7784;DHT22;19359;51.402;6.778;2023-02-15T09:25:29;5.10;43.70
7784;DHT22;19359;51.402;6.778;2023-02-15T09:27:56;5.20;1.00
7784;DHT22;19359;51.402;6.778;2023-02-15T09:30:22;5.40;44.60
7784;DHT22;19359;51.402;6.778;2023-02-15T09:32:49;5.60;42.70
7784;DHT22;19359;51.402;6.778;2023-02-15T09:35:16;5.80;26.30
7784;DHT22;19359;51.402;6.778;2023-02-15T09:37:42;5.50;26.30
7784;DHT22;19359;51.402;6.778;2023-02-15T09:40:12;5.60;21.40
7784;DHT22;19359;51.402;6.778;2023-02-15T09:43:07;5.70;1.00
7784;DHT22;19359;51.402;6.778;2023-02-15T09:45:45;5.70;19.80
7784;DHT22;19359;51.402;6.778;2023-02-15T09:48:36;5.80;23.40
7784;DHT22;19359;51.402;6.778;2023-02-15T09:51:22;6.00;24.50
7784;DHT22;19359;51.402;6.778;2023-02-15T09:54:01;6.00;1.00
7784;DHT22;19359;51.402;6.778;2023-02-15T09:56:33;6.10;1.00
7784;DHT22;19359;51.402;6.778;2023-02-15T10:01:41;6.20;13.20
7784;DHT22;19359;51.402;6.778;2023-02-15T10:04:24;6.20;9.20
7784;DHT22;19359;51.402;6.778;2023-02-15T10:07:05;6.30;1.00
7784;DHT22;19359;51.402;6.778;2023-02-15T10:09:44;6.30;5.50
7784;DHT22;19359;51.402;6.778;2023-02-15T10:15:09;6.50;1.00
7784;DHT22;19359;51.402;6.778;2023-02-15T10:17:49;6.70;3.80
7784;DHT22;19359;51.402;6.778;2023-02-15T10:20:23;6.70;5.50
7784;DHT22;19359;51.402;6.778;2023-02-15T10:23:06;6.70;1.00
7784;DHT22;19359;51.402;6.778;2023-02-15T10:25:41;7.00;1.00
7784;DHT22;19359;51.402;6.778;2023-02-15T10:28:15;6.80;1.00
7784;DHT22;19359;51.402;6.778;2023-02-15T10:30:46;6.90;1.00
7784;DHT22;19359;51.402;6.778;2023-02-15T10:33:25;6.70;1.00
7784;DHT22;19359;51.402;6.778;2023-02-15T10:36:05;7.30;1.00
7784;DHT22;19359;51.402;6.778;2023-02-15T10:38:39;7.00;1.00
7784;DHT22;19359;51.402;6.778;2023-02-15T10:41:19;7.00;1.00
7784;DHT22;19359;51.402;6.778;2023-02-15T10:44:00;7.30;1.00
7784;DHT22;19359;51.402;6.778;2023-02-15T10:46:43;7.20;1.00
7784;DHT22;19359;51.402;6.778;2023-02-15T10:49:26;7.40;1.00
7784;DHT22;19359;51.402;6.778;2023-02-15T10:52:11;7.40;1.00
7784;DHT22;19359;51.402;6.778;2023-02-15T10:57:17;7.70;1.00
7784;DHT22;19359;51.402;6.778;2023-02-15T11:00:05;7.60;1.00
7784;DHT22;19359;51.402;6.778;2023-02-15T11:05:35;7.70;1.00
7784;DHT22;19359;51.402;6.778;2023-02-15T11:08:07;8.10;1.00
7784;DHT22;19359;51.402;6.778;2023-02-15T11:13:06;7.90;1.00
7784;DHT22;19359;51.402;6.778;2023-02-15T11:15:36;8.20;1.00
7784;DHT22;19359;51.402;6.778;2023-02-15T11:18:11;8.30;1.00
7784;DHT22;19359;51.402;6.778;2023-02-15T11:20:47;8.20;1.00
7784;DHT22;19359;51.402;6.778;2023-02-15T11:23:16;8.20;1.00
7784;DHT22;19359;51.402;6.778;2023-02-15T11:25:46;8.30;1.00
7784;DHT22;19359;51.402;6.778;2023-02-15T11:28:18;8.20;1.00
7784;DHT22;19359;51.402;6.778;2023-02-15T11:30:49;8.30;1.00
7784;DHT22;19359;51.402;6.778;2023-02-15T11:33:22;8.50;1.00
7784;DHT22;19359;51.402;6.778;2023-02-15T11:35:53;8.40;1.00
7784;DHT22;19359;51.402;6.778;2023-02-15T11:38:23;8.40;1.00
7784;DHT22;19359;51.402;6.778;2023-02-15T11:40:54;8.70;1.00
7784;DHT22;19359;51.402;6.778;2023-02-15T11:43:29;8.50;1.00
7784;DHT22;19359;51.402;6.778;2023-02-15T11:45:57;8.80;1.00
7784;DHT22;19359;51.402;6.778;2023-02-15T11:50:52;8.90;1.00
7784;DHT22;19359;51.402;6.778;2023-02-15T11:53:20;8.90;1.00
7784;DHT22;19359;51.402;6.778;2023-02-15T11:55:50;9.30;1.00
7784;DHT22;19359;51.402;6.778;2023-02-15T11:58:25;9.20;1.00
7784;DHT22;19359;51.402;6.778;2023-02-15T12:00:56;9.10;1.00
7784;DHT22;19359;51.402;6.778;2023-02-15T12:03:29;9.00;1.00
7784;DHT22;19359;51.402;6.778;2023-02-15T12:06:03;9.40;1.00
7784;DHT22;19359;51.402;6.778;2023-02-15T12:08:37;9.50;1.00
7784;DHT22;19359;51.402;6.778;2023-02-15T12:11:07;9.50;1.00
7784;DHT22;19359;51.402;6.778;2023-02-15T12:13:54;9.50;1.00
7784;DHT22;19359;51.402;6.778;2023-02-15T12:16:21;9.60;1.00
7784;DHT22;19359;51.402;6.778;2023-02-15T12:18:50;9.60;1.00
7784;DHT22;19359;51.402;6.778;2023-02-15T12:21:25;9.70;1.00
7784;DHT22;19359;51.402;6.778;2023-02-15T12:23:55;9.60;1.00
7784;DHT22;19359;51.402;6.778;2023-02-15T12:26:28;9.90;1.00
7784;DHT22;19359;51.402;6.778;2023-02-15T12:28:57;9.80;1.00
7784;DHT22;19359;51.402;6.778;2023-02-15T12:31:32;9.90;1.00
7784;DHT22;19359;51.402;6.778;2023-02-15T12:34:03;10.10;1.00
7784;DHT22;19359;51.402;6.778;2023-02-15T12:36:41;10.20;1.00
7784;DHT22;19359;51.402;6.778;2023-02-15T12:39:21;10.30;1.00
7784;DHT22;19359;51.402;6.778;2023-02-15T12:42:02;10.60;1.00
7784;DHT22;19359;51.402;6.778;2023-02-15T12:44:31;10.60;1.00
7784;DHT22;19359;51.402;6.778;2023-02-15T12:47:00;10.70;1.00
7784;DHT22;19359;51.402;6.778;2023-02-15T12:49:29;10.60;1.00
7784;DHT22;19359;51.402;6.778;2023-02-15T12:51:57;10.80;1.00
7784;DHT22;19359;51.402;6.778;2023-02-15T12:54:37;10.80;1.00
7784;DHT22;19359;51.402;6.778;2023-02-15T12:57:22;11.00;1.00
7784;DHT22;19359;51.402;6.778;2023-02-15T12:59:51;11.10;1.00
7784;DHT22;19359;51.402;6.778;2023-02-15T13:02:25;11.10;1.00
7784;DHT22;19359;51.402;6.778;2023-02-15T13:04:55;10.80;1.00
7784;DHT22;19359;51.402;6.778;2023-02-15T13:07:28;11.20;1.00
7784;DHT22;19359;51.402;6.778;2023-02-15T13:09:56;10.90;1.00
7784;DHT22;19359;51.402;6.778;2023-02-15T13:12:24;11.60;1.00
7784;DHT22;19359;51.402;6.778;2023-02-15T13:14:54;11.60;1.00
7784;DHT22;19359;51.402;6.778;2023-02-15T13:17:25;11.70;1.00
7784;DHT22;19359;51.402;6.778;2023-02-15T13:19:59;11.80;1.00
7784;DHT22;19359;51.402;6.778;2023-02-15T13:22:32;11.80;1.00
7784;DHT22;19359;51.402;6.778;2023-02-15T13:25:04;11.90;1.00
7784;DHT22;19359;51.402;6.778;2023-02-15T13:27:38;11.80;1.00
7784;DHT22;19359;51.402;6.778;2023-02-15T13:30:17;11.80;1.00
7784;DHT22;19359;51.402;6.778;2023-02-15T13:32:45;12.50;1.00
7784;DHT22;19359;51.402;6.778;2023-02-15T13:35:17;12.00;1.00
7784;DHT22;19359;51.402;6.778;2023-02-15T13:41:02;12.40;1.00
7784;DHT22;19359;51.402;6.778;2023-02-15T13:43:38;12.60;1.00
7784;DHT22;19359;51.402;6.778;2023-02-15T13:46:34;12.50;1.00
7784;DHT22;19359;51.402;6.778;2023-02-15T13:49:13;12.40;1.00
7784;DHT22;19359;51.402;6.778;2023-02-15T13:51:46;12.50;1.00
7784;DHT22;19359;51.402;6.778;2023-02-15T13:54:33;12.50;1.00
7784;DHT22;19359;51.402;6.778;2023-02-15T13:57:26;12.50;1.00
7784;DHT22;19359;51.402;6.778;2023-02-15T14:00:04;12.40;1.00
7784;DHT22;19359;51.402;6.778;2023-02-15T14:03:06;12.60;1.00
7784;DHT22;19359;51.402;6.778;2023-02-15T14:05:52;12.60;1.00
7784;DHT22;19359;51.402;6.778;2023-02-15T14:08:34;12.70;1.00
7784;DHT22;19359;51.402;6.778;2023-02-15T14:11:07;12.70;1.00
7784;DHT22;19359;51.402;6.778;2023-02-15T14:13:49;12.90;1.00
7784;DHT22;19359;51.402;6.778;2023-02-15T14:16:26;12.80;1.00
7784;DHT22;19359;51.402;6.778;2023-02-15T14:19:04;12.70;1.00
7784;DHT22;19359;51.402;6.778;2023-02-15T14:21:38;13.00;1.00
7784;DHT22;19359;51.402;6.778;2023-02-15T14:24:20;12.80;1.00
7784;DHT22;19359;51.402;6.778;2023-02-15T14:26:52;12.70;1.00
7784;DHT22;19359;51.402;6.778;2023-02-15T14:29:32;12.80;1.00
7784;DHT22;19359;51.402;6.778;2023-02-15T14:32:08;12.90;1.00
7784;DHT22;19359;51.402;6.778;2023-02-15T14:34:42;13.00;1.00
7784;DHT22;19359;51.402;6.778;2023-02-15T14:37:11;13.00;1.00
7784;DHT22;19359;51.402;6.778;2023-02-15T14:39:44;13.00;1.00
7784;DHT22;19359;51.402;6.778;2023-02-15T14:42:37;13.00;1.00
7784;DHT22;19359;51.402;6.778;2023-02-15T14:45:17;13.10;1.00
7784;DHT22;19359;51.402;6.778;2023-02-15T14:47:51;13.40;1.00
7784;DHT22;19359;51.402;6.778;2023-02-15T14:50:38;12.90;1.00
7784;DHT22;19359;51.402;6.778;2023-02-15T14:53:32;13.00;1.00
7784;DHT22;19359;51.402;6.778;2023-02-15T14:56:18;12.90;1.00
7784;DHT22;19359;51.402;6.778;2023-02-15T14:59:13;12.90;1.00
7784;DHT22;19359;51.402;6.778;2023-02-15T15:01:41;13.00;1.00
7784;DHT22;19359;51.402;6.778;2023-02-15T15:04:10;13.00;1.00
7784;DHT22;19359;51.402;6.778;2023-02-15T15:09:12;13.50;1.00
7784;DHT22;19359;51.402;6.778;2023-02-15T15:11:44;13.50;1.00
7784;DHT22;19359;51.402;6.778;2023-02-15T15:14:36;13.50;1.00
7784;DHT22;19359;51.402;6.778;2023-02-15T15:17:04;13.50;1.00
7784;DHT22;19359;51.402;6.778;2023-02-15T15:20:01;13.40;1.00
7784;DHT22;19359;51.402;6.778;2023-02-15T15:22:30;13.40;1.00
7784;DHT22;19359;51.402;6.778;2023-02-15T15:24:58;13.30;1.00
7784;DHT22;19359;51.402;6.778;2023-02-15T15:27:49;12.40;1.00
7784;DHT22;19359;51.402;6.778;2023-02-15T15:30:46;13.30;1.00
7784;DHT22;19359;51.402;6.778;2023-02-15T15:36:27;13.00;1.00
7784;DHT22;19359;51.402;6.778;2023-02-15T15:39:05;12.80;1.00
7784;DHT22;19359;51.402;6.778;2023-02-15T15:41:41;12.60;1.00
7784;DHT22;19359;51.402;6.778;2023-02-15T15:44:40;12.50;1.00
7784;DHT22;19359;51.402;6.778;2023-02-15T15:47:24;12.30;1.00
7784;DHT22;19359;51.402;6.778;2023-02-15T15:49:56;12.20;1.00
7784;DHT22;19359;51.402;6.778;2023-02-15T15:52:23;12.10;1.00
7784;DHT22;19359;51.402;6.778;2023-02-15T15:54:53;11.70;1.00
7784;DHT22;19359;51.402;6.778;2023-02-15T15:57:24;11.70;1.00
7784;DHT22;19359;51.402;6.778;2023-02-15T15:59:55;11.20;1.00
7784;DHT22;19359;51.402;6.778;2023-02-15T16:02:24;11.20;1.00
7784;DHT22;19359;51.402;6.778;2023-02-15T16:04:51;11.20;1.00
7784;DHT22;19359;51.402;6.778;2023-02-15T16:07:24;11.20;1.00
7784;DHT22;19359;51.402;6.778;2023-02-15T16:09:56;11.20;1.00
7784;DHT22;19359;51.402;6.778;2023-02-15T16:12:25;11.00;1.00
7784;DHT22;19359;51.402;6.778;2023-02-15T16:14:53;10.80;1.00
7784;DHT22;19359;51.402;6.778;2023-02-15T16:17:23;10.80;1.00
7784;DHT22;19359;51.402;6.778;2023-02-15T16:19:51;10.70;1.00
7784;DHT22;19359;51.402;6.778;2023-02-15T16:22:21;10.60;1.00
7784;DHT22;19359;51.402;6.778;2023-02-15T16:25:00;10.50;1.00
7784;DHT22;19359;51.402;6.778;2023-02-15T16:27:34;10.30;1.00
7784;DHT22;19359;51.402;6.778;2023-02-15T16:30:23;10.30;1.00
7784;DHT22;19359;51.402;6.778;2023-02-15T16:32:53;10.30;1.00
7784;DHT22;19359;51.402;6.778;2023-02-15T16:35:21;10.00;1.00
7784;DHT22;19359;51.402;6.778;2023-02-15T16:37:48;9.90;1.00
7784;DHT22;19359;51.402;6.778;2023-02-15T16:40:38;9.80;1.00
7784;DHT22;19359;51.402;6.778;2023-02-15T16:43:13;9.60;1.00
7784;DHT22;19359;51.402;6.778;2023-02-15T16:45:42;9.50;1.00
7784;DHT22;19359;51.402;6.778;2023-02-15T16:48:13;9.50;1.00
7784;DHT22;19359;51.402;6.778;2023-02-15T16:50:47;9.10;1.00
7784;DHT22;19359;51.402;6.778;2023-02-15T16:53:20;8.90;1.00
7784;DHT22;19359;51.402;6.778;2023-02-15T16:55:51;9.00;1.00
7784;DHT22;19359;51.402;6.778;2023-02-15T16:58:25;9.10;1.00
7784;DHT22;19359;51.402;6.778;2023-02-15T17:00:58;8.90;1.00
7784;DHT22;19359;51.402;6.778;2023-02-15T17:03:25;8.80;1.00
7784;DHT22;19359;51.402;6.778;2023-02-15T17:05:53;8.80;1.00
7784;DHT22;19359;51.402;6.778;2023-02-15T17:08:26;8.60;1.00
7784;DHT22;19359;51.402;6.778;2023-02-15T17:11:21;8.90;1.00
7784;DHT22;19359;51.402;6.778;2023-02-15T17:14:19;8.50;1.00
7784;DHT22;19359;51.402;6.778;2023-02-15T17:16:50;8.40;1.00
7784;DHT22;19359;51.402;6.778;2023-02-15T17:19:22;8.30;1.00
7784;DHT22;19359;51.402;6.778;2023-02-15T17:21:51;8.20;1.00
7784;DHT22;19359;51.402;6.778;2023-02-15T17:27:06;8.20;1.00
7784;DHT22;19359;51.402;6.778;2023-02-15T17:29:36;8.30;1.00
7784;DHT22;19359;51.402;6.778;2023-02-15T17:32:12;8.30;1.00
7784;DHT22;19359;51.402;6.778;2023-02-15T17:34:45;8.30;1.00
7784;DHT22;19359;51.402;6.778;2023-02-15T17:37:23;8.30;1.00
7784;DHT22;19359;51.402;6.778;2023-02-15T17:39:50;8.10;1.00
7784;DHT22;19359;51.402;6.778;2023-02-15T17:42:17;8.00;1.00
7784;DHT22;19359;51.402;6.778;2023-02-15T17:44:43;8.20;1.00
7784;DHT22;19359;51.402;6.778;2023-02-15T17:47:15;8.20;1.00
7784;DHT22;19359;51.402;6.778;2023-02-15T17:49:43;8.00;1.00
7784;DHT22;19359;51.402;6.778;2023-02-15T17:52:11;7.90;1.00
7784;DHT22;19359;51.402;6.778;2023-02-15T17:54:39;7.80;1.00
7784;DHT22;19359;51.402;6.778;2023-02-15T17:57:23;7.90;1.00
7784;DHT22;19359;51.402;6.778;2023-02-15T17:59:51;7.80;1.00
7784;DHT22;19359;51.402;6.778;2023-02-15T18:02:36;7.90;1.00
7784;DHT22;19359;51.402;6.778;2023-02-15T18:08:09;7.90;1.00